sensor_id;sensor_type;location;lat;lon;timestamp;P1;durP1;ratioP1;P2;durP2;ratioP2
28086;SDS011;15392;48.912;8.380;2022-10-16T00:01:32;1.67;;;0.30;;
28086;SDS011;15392;48.912;8.380;2022-10-16T00:03:58;1.25;;;0.38;;
28086;SDS011;15392;48.912;8.380;2022-10-16T00:06:26;0.30;;;0.20;;
28086;SDS011;15392;48.912;8.380;2022-10-16T00:08:53;0.70;;;0.13;;
28086;SDS011;15392;48.912;8.380;2022-10-16T00:11:20;2.78;;;0.40;;
28086;SDS011;15392;48.912;8.380;2022-10-16T00:13:50;0.40;;;0.37;;
28086;SDS011;15392;48.912;8.380;2022-10-16T00:16:19;2.35;;;0.40;;
28086;SDS011;15392;48.912;8.380;2022-10-16T00:18:45;0.32;;;0.13;;
28086;SDS011;15392;48.912;8.380;2022-10-16T00:21:16;2.67;;;0.30;;
28086;SDS011;15392;48.912;8.380;2022-10-16T00:23:45;0.63;;;0.30;;
28086;SDS011;15392;48.912;8.380;2022-10-16T00:26:12;0.57;;;0.10;;
28086;SDS011;15392;48.912;8.380;2022-10-16T00:28:41;0.50;;;0.20;;
28086;SDS011;15392;48.912;8.380;2022-10-16T00:31:08;0.73;;;0.20;;
28086;SDS011;15392;48.912;8.380;2022-10-16T00:33:36;0.50;;;0.10;;
28086;SDS011;15392;48.912;8.380;2022-10-16T00:36:04;0.68;;;0.20;;
28086;SDS011;15392;48.912;8.380;2022-10-16T00:38:32;0.38;;;0.13;;
28086;SDS011;15392;48.912;8.380;2022-10-16T00:40:58;2.03;;;0.25;;
28086;SDS011;15392;48.912;8.380;2022-10-16T00:48:52;0.40;;;0.20;;
28086;SDS011;15392;48.912;8.380;2022-10-16T00:51:36;1.58;;;0.20;;
28086;SDS011;15392;48.912;8.380;2022-10-16T00:54:15;1.02;;;0.40;;
28086;SDS011;15392;48.912;8.380;2022-10-16T00:56:50;2.67;;;0.30;;
28086;SDS011;15392;48.912;8.380;2022-10-16T00:59:18;0.55;;;0.20;;
28086;SDS011;15392;48.912;8.380;2022-10-16T01:01:49;0.75;;;0.20;;
28086;SDS011;15392;48.912;8.380;2022-10-16T01:04:17;0.35;;;0.10;;
28086;SDS011;15392;48.912;8.380;2022-10-16T01:12:57;1.02;;;0.30;;
28086;SDS011;15392;48.912;8.380;2022-10-16T01:18:47;0.93;;;0.20;;
28086;SDS011;15392;48.912;8.380;2022-10-16T01:21:44;1.45;;;0.20;;
28086;SDS011;15392;48.912;8.380;2022-10-16T01:27:26;1.40;;;0.20;;
28086;SDS011;15392;48.912;8.380;2022-10-16T01:35:05;0.40;;;0.20;;
28086;SDS011;15392;48.912;8.380;2022-10-16T01:37:37;0.68;;;0.30;;
28086;SDS011;15392;48.912;8.380;2022-10-16T01:40:10;1.27;;;0.20;;
28086;SDS011;15392;48.912;8.380;2022-10-16T01:42:46;0.95;;;0.30;;
28086;SDS011;15392;48.912;8.380;2022-10-16T01:45:21;0.68;;;0.30;;
28086;SDS011;15392;48.912;8.380;2022-10-16T01:47:47;0.85;;;0.20;;
28086;SDS011;15392;48.912;8.380;2022-10-16T01:50:15;2.00;;;0.20;;
28086;SDS011;15392;48.912;8.380;2022-10-16T01:52:44;1.13;;;0.20;;
28086;SDS011;15392;48.912;8.380;2022-10-16T01:55:14;2.05;;;0.30;;
28086;SDS011;15392;48.912;8.380;2022-10-16T01:57:46;0.77;;;0.20;;
28086;SDS011;15392;48.912;8.380;2022-10-16T02:00:14;0.75;;;0.35;;
28086;SDS011;15392;48.912;8.380;2022-10-16T02:02:44;1.55;;;0.20;;
28086;SDS011;15392;48.912;8.380;2022-10-16T02:05:22;0.57;;;0.10;;
28086;SDS011;15392;48.912;8.380;2022-10-16T02:08:11;2.05;;;0.20;;
28086;SDS011;15392;48.912;8.380;2022-10-16T02:10:37;0.30;;;0.13;;
28086;SDS011;15392;48.912;8.380;2022-10-16T02:13:16;1.70;;;0.20;;
28086;SDS011;15392;48.912;8.380;2022-10-16T02:15:48;0.38;;;0.10;;
28086;SDS011;15392;48.912;8.380;2022-10-16T02:18:14;3.72;;;0.50;;
28086;SDS011;15392;48.912;8.380;2022-10-16T02:20:44;0.60;;;0.22;;
28086;SDS011;15392;48.912;8.380;2022-10-16T02:23:20;0.50;;;0.10;;
28086;SDS011;15392;48.912;8.380;2022-10-16T02:25:58;0.47;;;0.20;;
28086;SDS011;15392;48.912;8.380;2022-10-16T02:28:27;1.45;;;0.20;;
28086;SDS011;15392;48.912;8.380;2022-10-16T02:31:13;0.52;;;0.28;;
28086;SDS011;15392;48.912;8.380;2022-10-16T02:33:43;0.85;;;0.30;;
28086;SDS011;15392;48.912;8.380;2022-10-16T02:36:10;1.33;;;0.30;;
28086;SDS011;15392;48.912;8.380;2022-10-16T02:38:37;0.60;;;0.10;;
28086;SDS011;15392;48.912;8.380;2022-10-16T02:41:05;0.25;;;0.20;;
28086;SDS011;15392;48.912;8.380;2022-10-16T02:43:31;0.52;;;0.20;;
28086;SDS011;15392;48.912;8.380;2022-10-16T02:45:58;3.42;;;0.22;;
28086;SDS011;15392;48.912;8.380;2022-10-16T02:48:24;0.47;;;0.10;;
28086;SDS011;15392;48.912;8.380;2022-10-16T02:50:50;0.93;;;0.40;;
28086;SDS011;15392;48.912;8.380;2022-10-16T02:53:16;1.50;;;0.13;;
28086;SDS011;15392;48.912;8.380;2022-10-16T02:55:42;1.75;;;0.32;;
28086;SDS011;15392;48.912;8.380;2022-10-16T02:58:07;1.20;;;0.32;;
28086;SDS011;15392;48.912;8.380;2022-10-16T03:00:34;1.92;;;0.20;;
28086;SDS011;15392;48.912;8.380;2022-10-16T03:02:59;0.50;;;0.20;;
28086;SDS011;15392;48.912;8.380;2022-10-16T03:05:25;0.10;;;0.10;;
28086;SDS011;15392;48.912;8.380;2022-10-16T03:07:51;0.52;;;0.13;;
28086;SDS011;15392;48.912;8.380;2022-10-16T03:10:17;0.25;;;0.10;;
28086;SDS011;15392;48.912;8.380;2022-10-16T03:12:43;0.77;;;0.10;;
28086;SDS011;15392;48.912;8.380;2022-10-16T03:15:09;0.95;;;0.20;;
28086;SDS011;15392;48.912;8.380;2022-10-16T03:17:35;0.50;;;0.15;;
28086;SDS011;15392;48.912;8.380;2022-10-16T03:20:01;1.25;;;0.30;;
28086;SDS011;15392;48.912;8.380;2022-10-16T03:22:28;0.17;;;0.10;;
28086;SDS011;15392;48.912;8.380;2022-10-16T03:24:53;0.30;;;0.10;;
28086;SDS011;15392;48.912;8.380;2022-10-16T03:27:19;0.88;;;0.30;;
28086;SDS011;15392;48.912;8.380;2022-10-16T03:29:45;0.80;;;0.40;;
28086;SDS011;15392;48.912;8.380;2022-10-16T03:32:11;1.08;;;0.20;;
28086;SDS011;15392;48.912;8.380;2022-10-16T03:34:36;0.38;;;0.10;;
28086;SDS011;15392;48.912;8.380;2022-10-16T03:37:02;0.38;;;0.20;;
28086;SDS011;15392;48.912;8.380;2022-10-16T03:39:28;1.70;;;0.13;;
28086;SDS011;15392;48.912;8.380;2022-10-16T03:41:54;1.17;;;0.40;;
28086;SDS011;15392;48.912;8.380;2022-10-16T03:44:19;1.63;;;0.40;;
28086;SDS011;15392;48.912;8.380;2022-10-16T03:46:45;0.75;;;0.20;;
28086;SDS011;15392;48.912;8.380;2022-10-16T03:49:11;0.32;;;0.13;;
28086;SDS011;15392;48.912;8.380;2022-10-16T03:51:36;1.33;;;0.10;;
28086;SDS011;15392;48.912;8.380;2022-10-16T03:54:02;0.47;;;0.10;;
28086;SDS011;15392;48.912;8.380;2022-10-16T03:56:28;4.72;;;0.30;;
28086;SDS011;15392;48.912;8.380;2022-10-16T03:58:53;0.98;;;0.20;;
28086;SDS011;15392;48.912;8.380;2022-10-16T04:01:19;0.40;;;0.20;;
28086;SDS011;15392;48.912;8.380;2022-10-16T04:03:45;0.65;;;0.43;;
28086;SDS011;15392;48.912;8.380;2022-10-16T04:06:11;1.15;;;0.20;;
28086;SDS011;15392;48.912;8.380;2022-10-16T04:08:36;0.82;;;0.30;;
28086;SDS011;15392;48.912;8.380;2022-10-16T04:11:04;1.70;;;0.32;;
28086;SDS011;15392;48.912;8.380;2022-10-16T04:13:30;2.53;;;0.63;;
28086;SDS011;15392;48.912;8.380;2022-10-16T04:15:55;0.50;;;0.20;;
28086;SDS011;15392;48.912;8.380;2022-10-16T04:18:21;0.60;;;0.20;;
28086;SDS011;15392;48.912;8.380;2022-10-16T04:20:47;0.30;;;0.30;;
28086;SDS011;15392;48.912;8.380;2022-10-16T04:23:12;1.17;;;0.38;;
28086;SDS011;15392;48.912;8.380;2022-10-16T04:25:38;0.80;;;0.20;;
28086;SDS011;15392;48.912;8.380;2022-10-16T04:28:04;0.47;;;0.30;;
28086;SDS011;15392;48.912;8.380;2022-10-16T04:30:30;1.05;;;0.30;;
28086;SDS011;15392;48.912;8.380;2022-10-16T04:32:56;0.30;;;0.10;;
28086;SDS011;15392;48.912;8.380;2022-10-16T04:35:21;0.70;;;0.25;;
28086;SDS011;15392;48.912;8.380;2022-10-16T04:37:47;1.17;;;0.50;;
28086;SDS011;15392;48.912;8.380;2022-10-16T04:40:13;0.40;;;0.30;;
28086;SDS011;15392;48.912;8.380;2022-10-16T04:42:39;0.25;;;0.20;;
28086;SDS011;15392;48.912;8.380;2022-10-16T04:45:05;0.65;;;0.10;;
28086;SDS011;15392;48.912;8.380;2022-10-16T04:47:33;1.65;;;0.20;;
28086;SDS011;15392;48.912;8.380;2022-10-16T04:49:58;0.90;;;0.10;;
28086;SDS011;15392;48.912;8.380;2022-10-16T04:52:26;0.30;;;0.20;;
28086;SDS011;15392;48.912;8.380;2022-10-16T04:54:52;1.52;;;0.40;;
28086;SDS011;15392;48.912;8.380;2022-10-16T04:57:18;0.50;;;0.22;;
28086;SDS011;15392;48.912;8.380;2022-10-16T04:59:44;0.63;;;0.22;;
28086;SDS011;15392;48.912;8.380;2022-10-16T05:02:10;0.25;;;0.20;;
28086;SDS011;15392;48.912;8.380;2022-10-16T05:04:36;1.02;;;0.30;;
28086;SDS011;15392;48.912;8.380;2022-10-16T05:07:01;2.63;;;0.20;;
28086;SDS011;15392;48.912;8.380;2022-10-16T05:09:27;0.40;;;0.30;;
28086;SDS011;15392;48.912;8.380;2022-10-16T05:11:53;0.20;;;0.20;;
28086;SDS011;15392;48.912;8.380;2022-10-16T05:14:18;1.02;;;0.30;;
28086;SDS011;15392;48.912;8.380;2022-10-16T05:16:44;0.60;;;0.13;;
28086;SDS011;15392;48.912;8.380;2022-10-16T05:19:10;0.43;;;0.20;;
28086;SDS011;15392;48.912;8.380;2022-10-16T05:21:36;0.40;;;0.20;;
28086;SDS011;15392;48.912;8.380;2022-10-16T05:24:01;0.70;;;0.20;;
28086;SDS011;15392;48.912;8.380;2022-10-16T05:26:27;0.35;;;0.10;;
28086;SDS011;15392;48.912;8.380;2022-10-16T05:28:53;0.40;;;0.10;;
28086;SDS011;15392;48.912;8.380;2022-10-16T05:31:19;1.77;;;0.20;;
28086;SDS011;15392;48.912;8.380;2022-10-16T05:33:44;0.68;;;0.22;;
28086;SDS011;15392;48.912;8.380;2022-10-16T05:36:10;0.50;;;0.30;;
28086;SDS011;15392;48.912;8.380;2022-10-16T05:38:36;1.65;;;0.20;;
28086;SDS011;15392;48.912;8.380;2022-10-16T05:41:03;0.77;;;0.15;;
28086;SDS011;15392;48.912;8.380;2022-10-16T05:43:31;0.10;;;0.10;;
28086;SDS011;15392;48.912;8.380;2022-10-16T05:45:58;1.13;;;0.20;;
28086;SDS011;15392;48.912;8.380;2022-10-16T05:48:29;0.45;;;0.40;;
28086;SDS011;15392;48.912;8.380;2022-10-16T05:51:06;2.83;;;0.32;;
28086;SDS011;15392;48.912;8.380;2022-10-16T05:53:34;0.43;;;0.15;;
28086;SDS011;15392;48.912;8.380;2022-10-16T05:56:02;3.00;;;0.30;;
28086;SDS011;15392;48.912;8.380;2022-10-16T05:58:36;0.20;;;0.10;;
28086;SDS011;15392;48.912;8.380;2022-10-16T06:01:03;0.75;;;0.17;;
28086;SDS011;15392;48.912;8.380;2022-10-16T06:03:32;0.43;;;0.30;;
28086;SDS011;15392;48.912;8.380;2022-10-16T06:05:59;0.63;;;0.20;;
28086;SDS011;15392;48.912;8.380;2022-10-16T06:08:32;2.28;;;0.40;;
28086;SDS011;15392;48.912;8.380;2022-10-16T06:11:05;0.47;;;0.13;;
28086;SDS011;15392;48.912;8.380;2022-10-16T06:13:33;1.42;;;0.10;;
28086;SDS011;15392;48.912;8.380;2022-10-16T06:15:59;1.83;;;0.30;;
28086;SDS011;15392;48.912;8.380;2022-10-16T06:18:26;1.30;;;0.30;;
28086;SDS011;15392;48.912;8.380;2022-10-16T06:20:53;2.47;;;0.38;;
28086;SDS011;15392;48.912;8.380;2022-10-16T06:23:20;0.75;;;0.30;;
28086;SDS011;15392;48.912;8.380;2022-10-16T06:25:46;0.32;;;0.10;;
28086;SDS011;15392;48.912;8.380;2022-10-16T06:28:13;2.42;;;0.50;;
28086;SDS011;15392;48.912;8.380;2022-10-16T06:30:40;0.98;;;0.17;;
28086;SDS011;15392;48.912;8.380;2022-10-16T06:33:08;0.20;;;0.10;;
28086;SDS011;15392;48.912;8.380;2022-10-16T06:35:35;0.38;;;0.32;;
28086;SDS011;15392;48.912;8.380;2022-10-16T06:38:01;1.98;;;0.30;;
28086;SDS011;15392;48.912;8.380;2022-10-16T06:40:27;1.67;;;0.25;;
28086;SDS011;15392;48.912;8.380;2022-10-16T06:42:57;0.30;;;0.30;;
28086;SDS011;15392;48.912;8.380;2022-10-16T06:45:22;1.50;;;0.10;;
28086;SDS011;15392;48.912;8.380;2022-10-16T06:47:48;1.80;;;0.32;;
28086;SDS011;15392;48.912;8.380;2022-10-16T06:50:14;1.90;;;0.40;;
28086;SDS011;15392;48.912;8.380;2022-10-16T06:52:39;0.45;;;0.40;;
28086;SDS011;15392;48.912;8.380;2022-10-16T06:55:05;0.57;;;0.22;;
28086;SDS011;15392;48.912;8.380;2022-10-16T06:57:32;4.32;;;0.30;;
28086;SDS011;15392;48.912;8.380;2022-10-16T06:59:57;1.15;;;0.28;;
28086;SDS011;15392;48.912;8.380;2022-10-16T07:02:23;1.02;;;0.30;;
28086;SDS011;15392;48.912;8.380;2022-10-16T07:04:49;2.13;;;0.38;;
28086;SDS011;15392;48.912;8.380;2022-10-16T07:07:14;0.30;;;0.10;;
28086;SDS011;15392;48.912;8.380;2022-10-16T07:09:40;0.82;;;0.28;;
28086;SDS011;15392;48.912;8.380;2022-10-16T07:12:06;1.95;;;0.32;;
28086;SDS011;15392;48.912;8.380;2022-10-16T07:14:31;1.45;;;0.40;;
28086;SDS011;15392;48.912;8.380;2022-10-16T07:16:57;2.05;;;0.30;;
28086;SDS011;15392;48.912;8.380;2022-10-16T07:19:23;1.55;;;0.10;;
28086;SDS011;15392;48.912;8.380;2022-10-16T07:21:50;0.57;;;0.10;;
28086;SDS011;15392;48.912;8.380;2022-10-16T07:24:16;2.42;;;0.25;;
28086;SDS011;15392;48.912;8.380;2022-10-16T07:26:43;1.52;;;0.40;;
28086;SDS011;15392;48.912;8.380;2022-10-16T07:29:14;1.42;;;0.30;;
28086;SDS011;15392;48.912;8.380;2022-10-16T07:31:43;1.02;;;0.52;;
28086;SDS011;15392;48.912;8.380;2022-10-16T07:34:10;0.60;;;0.40;;
28086;SDS011;15392;48.912;8.380;2022-10-16T07:36:38;1.23;;;0.30;;
28086;SDS011;15392;48.912;8.380;2022-10-16T07:39:04;1.88;;;0.50;;
28086;SDS011;15392;48.912;8.380;2022-10-16T07:41:30;0.70;;;0.22;;
28086;SDS011;15392;48.912;8.380;2022-10-16T07:43:58;0.20;;;0.20;;
28086;SDS011;15392;48.912;8.380;2022-10-16T07:46:25;0.63;;;0.28;;
28086;SDS011;15392;48.912;8.380;2022-10-16T07:48:52;0.45;;;0.30;;
28086;SDS011;15392;48.912;8.380;2022-10-16T07:51:19;0.40;;;0.28;;
28086;SDS011;15392;48.912;8.380;2022-10-16T07:53:47;1.50;;;0.20;;
28086;SDS011;15392;48.912;8.380;2022-10-16T07:56:14;1.98;;;0.30;;
28086;SDS011;15392;48.912;8.380;2022-10-16T07:58:41;0.28;;;0.10;;
28086;SDS011;15392;48.912;8.380;2022-10-16T08:01:08;0.20;;;0.20;;
28086;SDS011;15392;48.912;8.380;2022-10-16T08:03:38;0.40;;;0.30;;
28086;SDS011;15392;48.912;8.380;2022-10-16T08:06:07;0.38;;;0.38;;
28086;SDS011;15392;48.912;8.380;2022-10-16T08:08:33;0.40;;;0.35;;
28086;SDS011;15392;48.912;8.380;2022-10-16T08:10:58;0.40;;;0.40;;
28086;SDS011;15392;48.912;8.380;2022-10-16T08:13:24;0.50;;;0.50;;
28086;SDS011;15392;48.912;8.380;2022-10-16T08:15:51;0.47;;;0.40;;
28086;SDS011;15392;48.912;8.380;2022-10-16T08:18:18;0.30;;;0.30;;
28086;SDS011;15392;48.912;8.380;2022-10-16T08:20:44;0.40;;;0.40;;
28086;SDS011;15392;48.912;8.380;2022-10-16T08:23:13;0.90;;;0.20;;
28086;SDS011;15392;48.912;8.380;2022-10-16T08:25:39;1.50;;;0.20;;
28086;SDS011;15392;48.912;8.380;2022-10-16T08:28:06;0.43;;;0.40;;
28086;SDS011;15392;48.912;8.380;2022-10-16T08:30:34;0.50;;;0.50;;
28086;SDS011;15392;48.912;8.380;2022-10-16T08:33:01;0.52;;;0.40;;
28086;SDS011;15392;48.912;8.380;2022-10-16T08:35:27;0.98;;;0.20;;
28086;SDS011;15392;48.912;8.380;2022-10-16T08:37:53;0.40;;;0.28;;
28086;SDS011;15392;48.912;8.380;2022-10-16T08:40:20;0.60;;;0.40;;
28086;SDS011;15392;48.912;8.380;2022-10-16T08:46:06;0.38;;;0.25;;
28086;SDS011;15392;48.912;8.380;2022-10-16T08:48:58;0.20;;;0.20;;
28086;SDS011;15392;48.912;8.380;2022-10-16T08:51:29;0.20;;;0.20;;
28086;SDS011;15392;48.912;8.380;2022-10-16T08:54:01;0.20;;;0.20;;
28086;SDS011;15392;48.912;8.380;2022-10-16T08:56:30;0.52;;;0.52;;
28086;SDS011;15392;48.912;8.380;2022-10-16T08:58:57;0.32;;;0.22;;
28086;SDS011;15392;48.912;8.380;2022-10-16T09:01:25;0.60;;;0.20;;
28086;SDS011;15392;48.912;8.380;2022-10-16T09:04:07;0.20;;;0.20;;
28086;SDS011;15392;48.912;8.380;2022-10-16T09:13:02;0.20;;;0.20;;
28086;SDS011;15392;48.912;8.380;2022-10-16T09:18:40;0.38;;;0.25;;
28086;SDS011;15392;48.912;8.380;2022-10-16T09:21:38;3.03;;;0.50;;
28086;SDS011;15392;48.912;8.380;2022-10-16T09:26:44;0.25;;;0.25;;
28086;SDS011;15392;48.912;8.380;2022-10-16T09:29:15;0.45;;;0.30;;
28086;SDS011;15392;48.912;8.380;2022-10-16T09:31:46;0.20;;;0.20;;
28086;SDS011;15392;48.912;8.380;2022-10-16T09:34:32;1.05;;;0.20;;
28086;SDS011;15392;48.912;8.380;2022-10-16T09:37:03;0.88;;;0.57;;
28086;SDS011;15392;48.912;8.380;2022-10-16T09:39:44;1.70;;;0.30;;
28086;SDS011;15392;48.912;8.380;2022-10-16T09:42:14;0.30;;;0.30;;
28086;SDS011;15392;48.912;8.380;2022-10-16T09:44:49;0.22;;;0.22;;
28086;SDS011;15392;48.912;8.380;2022-10-16T09:49:56;2.38;;;0.20;;
28086;SDS011;15392;48.912;8.380;2022-10-16T09:52:30;0.63;;;0.30;;
28086;SDS011;15392;48.912;8.380;2022-10-16T09:55:02;1.40;;;0.30;;
28086;SDS011;15392;48.912;8.380;2022-10-16T09:57:53;0.20;;;0.20;;
28086;SDS011;15392;48.912;8.380;2022-10-16T10:00:21;0.43;;;0.20;;
28086;SDS011;15392;48.912;8.380;2022-10-16T10:02:48;0.20;;;0.20;;
28086;SDS011;15392;48.912;8.380;2022-10-16T10:05:18;0.20;;;0.20;;
28086;SDS011;15392;48.912;8.380;2022-10-16T10:07:53;1.92;;;0.50;;
28086;SDS011;15392;48.912;8.380;2022-10-16T10:10:28;0.20;;;0.20;;
28086;SDS011;15392;48.912;8.380;2022-10-16T10:12:57;0.52;;;0.40;;
28086;SDS011;15392;48.912;8.380;2022-10-16T10:15:23;0.22;;;0.22;;
28086;SDS011;15392;48.912;8.380;2022-10-16T10:17:57;0.38;;;0.38;;
28086;SDS011;15392;48.912;8.380;2022-10-16T10:20:28;0.90;;;0.90;;
28086;SDS011;15392;48.912;8.380;2022-10-16T10:23:00;0.70;;;0.70;;
28086;SDS011;15392;48.912;8.380;2022-10-16T10:25:50;0.55;;;0.40;;
28086;SDS011;15392;48.912;8.380;2022-10-16T10:28:38;2.05;;;0.30;;
28086;SDS011;15392;48.912;8.380;2022-10-16T10:34:32;4.20;;;0.30;;
28086;SDS011;15392;48.912;8.380;2022-10-16T10:37:23;0.30;;;0.30;;
28086;SDS011;15392;48.912;8.380;2022-10-16T10:40:23;0.40;;;0.30;;
28086;SDS011;15392;48.912;8.380;2022-10-16T10:43:22;0.40;;;0.10;;
28086;SDS011;15392;48.912;8.380;2022-10-16T10:46:08;0.55;;;0.20;;
28086;SDS011;15392;48.912;8.380;2022-10-16T10:48:51;0.47;;;0.20;;
28086;SDS011;15392;48.912;8.380;2022-10-16T10:51:54;0.20;;;0.20;;
28086;SDS011;15392;48.912;8.380;2022-10-16T10:58:06;0.25;;;0.25;;
28086;SDS011;15392;48.912;8.380;2022-10-16T11:08:26;0.38;;;0.20;;
28086;SDS011;15392;48.912;8.380;2022-10-16T11:10:52;0.75;;;0.40;;
28086;SDS011;15392;48.912;8.380;2022-10-16T11:16:29;0.20;;;0.20;;
28086;SDS011;15392;48.912;8.380;2022-10-16T11:19:03;0.25;;;0.25;;
28086;SDS011;15392;48.912;8.380;2022-10-16T11:21:48;0.20;;;0.20;;
28086;SDS011;15392;48.912;8.380;2022-10-16T11:24:28;0.70;;;0.30;;
28086;SDS011;15392;48.912;8.380;2022-10-16T11:27:52;0.20;;;0.20;;
28086;SDS011;15392;48.912;8.380;2022-10-16T11:30:34;0.85;;;0.30;;
28086;SDS011;15392;48.912;8.380;2022-10-16T11:36:02;0.90;;;0.10;;
28086;SDS011;15392;48.912;8.380;2022-10-16T11:38:52;0.55;;;0.30;;
28086;SDS011;15392;48.912;8.380;2022-10-16T11:49:55;0.32;;;0.32;;
28086;SDS011;15392;48.912;8.380;2022-10-16T11:52:28;0.30;;;0.15;;
28086;SDS011;15392;48.912;8.380;2022-10-16T11:55:16;0.95;;;0.22;;
28086;SDS011;15392;48.912;8.380;2022-10-16T11:57:54;0.40;;;0.30;;
28086;SDS011;15392;48.912;8.380;2022-10-16T12:00:33;0.77;;;0.25;;
28086;SDS011;15392;48.912;8.380;2022-10-16T12:03:29;1.33;;;0.28;;
28086;SDS011;15392;48.912;8.380;2022-10-16T12:06:27;0.20;;;0.20;;
28086;SDS011;15392;48.912;8.380;2022-10-16T12:09:25;1.13;;;0.30;;
28086;SDS011;15392;48.912;8.380;2022-10-16T12:11:55;0.73;;;0.30;;
28086;SDS011;15392;48.912;8.380;2022-10-16T12:14:40;1.13;;;0.30;;
28086;SDS011;15392;48.912;8.380;2022-10-16T12:20:12;0.40;;;0.40;;
28086;SDS011;15392;48.912;8.380;2022-10-16T12:22:48;0.17;;;0.15;;
28086;SDS011;15392;48.912;8.380;2022-10-16T12:30:40;0.28;;;0.28;;
28086;SDS011;15392;48.912;8.380;2022-10-16T12:35:49;4.30;;;0.40;;
28086;SDS011;15392;48.912;8.380;2022-10-16T12:38:30;0.65;;;0.30;;
28086;SDS011;15392;48.912;8.380;2022-10-16T12:41:04;0.90;;;0.30;;
28086;SDS011;15392;48.912;8.380;2022-10-16T12:43:40;0.57;;;0.20;;
28086;SDS011;15392;48.912;8.380;2022-10-16T12:48:39;0.43;;;0.28;;
28086;SDS011;15392;48.912;8.380;2022-10-16T12:51:21;0.30;;;0.30;;
28086;SDS011;15392;48.912;8.380;2022-10-16T12:54:25;1.35;;;0.20;;
28086;SDS011;15392;48.912;8.380;2022-10-16T13:06:07;0.30;;;0.30;;
28086;SDS011;15392;48.912;8.380;2022-10-16T13:14:44;1.08;;;0.45;;
28086;SDS011;15392;48.912;8.380;2022-10-16T13:23:42;0.25;;;0.20;;
28086;SDS011;15392;48.912;8.380;2022-10-16T13:29:05;0.50;;;0.20;;
28086;SDS011;15392;48.912;8.380;2022-10-16T13:31:31;0.55;;;0.28;;
28086;SDS011;15392;48.912;8.380;2022-10-16T13:33:59;0.35;;;0.30;;
28086;SDS011;15392;48.912;8.380;2022-10-16T13:36:27;0.32;;;0.22;;
28086;SDS011;15392;48.912;8.380;2022-10-16T13:41:40;1.08;;;0.50;;
28086;SDS011;15392;48.912;8.380;2022-10-16T13:44:13;1.85;;;0.38;;
28086;SDS011;15392;48.912;8.380;2022-10-16T13:46:44;2.25;;;0.80;;
28086;SDS011;15392;48.912;8.380;2022-10-16T13:49:15;1.50;;;0.40;;
28086;SDS011;15392;48.912;8.380;2022-10-16T13:51:53;0.63;;;0.30;;
28086;SDS011;15392;48.912;8.380;2022-10-16T13:54:25;1.45;;;0.40;;
28086;SDS011;15392;48.912;8.380;2022-10-16T13:56:53;2.72;;;0.60;;
28086;SDS011;15392;48.912;8.380;2022-10-16T14:01:58;2.63;;;0.40;;
28086;SDS011;15392;48.912;8.380;2022-10-16T14:04:25;2.45;;;0.20;;
28086;SDS011;15392;48.912;8.380;2022-10-16T14:06:57;0.65;;;0.38;;
28086;SDS011;15392;48.912;8.380;2022-10-16T14:11:55;1.27;;;1.27;;
28086;SDS011;15392;48.912;8.380;2022-10-16T14:14:27;2.47;;;0.70;;
28086;SDS011;15392;48.912;8.380;2022-10-16T14:17:13;2.38;;;0.40;;
28086;SDS011;15392;48.912;8.380;2022-10-16T14:19:50;0.47;;;0.30;;
28086;SDS011;15392;48.912;8.380;2022-10-16T14:24:52;0.70;;;0.70;;
28086;SDS011;15392;48.912;8.380;2022-10-16T14:27:31;0.90;;;0.50;;
28086;SDS011;15392;48.912;8.380;2022-10-16T14:30:16;1.30;;;0.30;;
28086;SDS011;15392;48.912;8.380;2022-10-16T14:32:53;1.17;;;0.50;;
28086;SDS011;15392;48.912;8.380;2022-10-16T14:35:35;0.40;;;0.30;;
28086;SDS011;15392;48.912;8.380;2022-10-16T14:38:04;1.00;;;0.30;;
28086;SDS011;15392;48.912;8.380;2022-10-16T14:40:35;0.77;;;0.30;;
28086;SDS011;15392;48.912;8.380;2022-10-16T14:43:02;2.33;;;0.50;;
28086;SDS011;15392;48.912;8.380;2022-10-16T14:45:31;2.63;;;0.60;;
28086;SDS011;15392;48.912;8.380;2022-10-16T14:48:00;1.48;;;0.32;;
28086;SDS011;15392;48.912;8.380;2022-10-16T14:50:37;0.63;;;0.38;;
28086;SDS011;15392;48.912;8.380;2022-10-16T14:53:07;1.73;;;0.40;;
28086;SDS011;15392;48.912;8.380;2022-10-16T14:55:37;0.40;;;0.40;;
28086;SDS011;15392;48.912;8.380;2022-10-16T14:58:05;1.05;;;0.30;;
28086;SDS011;15392;48.912;8.380;2022-10-16T15:00:38;0.73;;;0.52;;
28086;SDS011;15392;48.912;8.380;2022-10-16T15:03:04;0.40;;;0.40;;
28086;SDS011;15392;48.912;8.380;2022-10-16T15:05:29;0.50;;;0.50;;
28086;SDS011;15392;48.912;8.380;2022-10-16T15:07:57;1.98;;;1.88;;
28086;SDS011;15392;48.912;8.380;2022-10-16T15:10:23;3.30;;;3.15;;
28086;SDS011;15392;48.912;8.380;2022-10-16T15:12:51;2.70;;;1.73;;
28086;SDS011;15392;48.912;8.380;2022-10-16T15:15:23;2.88;;;1.42;;
28086;SDS011;15392;48.912;8.380;2022-10-16T15:17:58;4.15;;;1.45;;
28086;SDS011;15392;48.912;8.380;2022-10-16T15:20:30;3.70;;;1.20;;
28086;SDS011;15392;48.912;8.380;2022-10-16T15:23:12;1.30;;;0.73;;
28086;SDS011;15392;48.912;8.380;2022-10-16T15:25:45;1.65;;;0.70;;
28086;SDS011;15392;48.912;8.380;2022-10-16T15:28:14;3.10;;;0.50;;
28086;SDS011;15392;48.912;8.380;2022-10-16T15:30:41;1.45;;;0.55;;
28086;SDS011;15392;48.912;8.380;2022-10-16T15:33:14;1.80;;;1.25;;
28086;SDS011;15392;48.912;8.380;2022-10-16T15:35:43;2.97;;;0.90;;
28086;SDS011;15392;48.912;8.380;2022-10-16T15:40:39;1.63;;;0.65;;
28086;SDS011;15392;48.912;8.380;2022-10-16T15:43:05;0.77;;;0.50;;
28086;SDS011;15392;48.912;8.380;2022-10-16T15:45:31;1.90;;;1.77;;
28086;SDS011;15392;48.912;8.380;2022-10-16T15:47:57;1.85;;;1.00;;
28086;SDS011;15392;48.912;8.380;2022-10-16T15:50:23;2.97;;;0.63;;
28086;SDS011;15392;48.912;8.380;2022-10-16T15:52:49;1.80;;;0.50;;
28086;SDS011;15392;48.912;8.380;2022-10-16T15:55:16;0.68;;;0.40;;
28086;SDS011;15392;48.912;8.380;2022-10-16T15:57:43;0.98;;;0.60;;
28086;SDS011;15392;48.912;8.380;2022-10-16T16:00:11;4.18;;;0.70;;
28086;SDS011;15392;48.912;8.380;2022-10-16T16:02:49;1.40;;;0.50;;
28086;SDS011;15392;48.912;8.380;2022-10-16T16:05:17;0.65;;;0.40;;
28086;SDS011;15392;48.912;8.380;2022-10-16T16:07:44;1.27;;;0.60;;
28086;SDS011;15392;48.912;8.380;2022-10-16T16:10:10;2.53;;;0.80;;
28086;SDS011;15392;48.912;8.380;2022-10-16T16:12:37;2.63;;;0.70;;
28086;SDS011;15392;48.912;8.380;2022-10-16T16:15:04;3.65;;;0.60;;
28086;SDS011;15392;48.912;8.380;2022-10-16T16:17:32;1.95;;;0.73;;
28086;SDS011;15392;48.912;8.380;2022-10-16T16:19:59;1.25;;;1.20;;
28086;SDS011;15392;48.912;8.380;2022-10-16T16:22:25;3.92;;;1.80;;
28086;SDS011;15392;48.912;8.380;2022-10-16T16:24:51;1.20;;;1.10;;
28086;SDS011;15392;48.912;8.380;2022-10-16T16:27:16;3.33;;;0.70;;
28086;SDS011;15392;48.912;8.380;2022-10-16T16:29:42;1.80;;;0.70;;
28086;SDS011;15392;48.912;8.380;2022-10-16T16:32:08;2.28;;;0.82;;
28086;SDS011;15392;48.912;8.380;2022-10-16T16:34:34;2.60;;;0.70;;
28086;SDS011;15392;48.912;8.380;2022-10-16T16:36:59;0.88;;;0.63;;
28086;SDS011;15392;48.912;8.380;2022-10-16T16:39:25;2.70;;;0.57;;
28086;SDS011;15392;48.912;8.380;2022-10-16T16:41:51;1.77;;;0.85;;
28086;SDS011;15392;48.912;8.380;2022-10-16T16:44:17;0.55;;;0.50;;
28086;SDS011;15392;48.912;8.380;2022-10-16T16:46:43;2.45;;;0.77;;
28086;SDS011;15392;48.912;8.380;2022-10-16T16:49:10;1.20;;;0.60;;
28086;SDS011;15392;48.912;8.380;2022-10-16T16:51:37;3.78;;;0.80;;
28086;SDS011;15392;48.912;8.380;2022-10-16T16:54:04;4.40;;;0.60;;
28086;SDS011;15392;48.912;8.380;2022-10-16T16:56:32;1.45;;;0.68;;
28086;SDS011;15392;48.912;8.380;2022-10-16T16:58:58;2.95;;;0.60;;
28086;SDS011;15392;48.912;8.380;2022-10-16T17:01:24;3.40;;;0.60;;
28086;SDS011;15392;48.912;8.380;2022-10-16T17:03:53;3.85;;;0.68;;
28086;SDS011;15392;48.912;8.380;2022-10-16T17:06:22;2.20;;;0.60;;
28086;SDS011;15392;48.912;8.380;2022-10-16T17:11:21;0.45;;;0.43;;